sensor_id;sensor_type;location;lat;lon;timestamp;P1;durP1;ratioP1;P2;durP2;ratioP2
59970;SDS011;45825;45.434;9.116;2023-12-20T00:00:39;46.50;;;31.25;;
59970;SDS011;45825;45.434;9.116;2023-12-20T00:03:04;42.65;;;30.55;;
59970;SDS011;45825;45.434;9.116;2023-12-20T00:05:30;44.47;;;31.60;;
59970;SDS011;45825;45.434;9.116;2023-12-20T00:07:57;44.83;;;30.80;;
59970;SDS011;45825;45.434;9.116;2023-12-20T00:10:22;43.53;;;31.98;;
59970;SDS011;45825;45.434;9.116;2023-12-20T00:12:48;42.60;;;32.58;;
59970;SDS011;45825;45.434;9.116;2023-12-20T00:15:13;44.85;;;32.88;;
59970;SDS011;45825;45.434;9.116;2023-12-20T00:17:38;45.63;;;33.35;;
59970;SDS011;45825;45.434;9.116;2023-12-20T00:20:04;43.10;;;32.80;;
59970;SDS011;45825;45.434;9.116;2023-12-20T00:22:31;45.72;;;32.65;;
59970;SDS011;45825;45.434;9.116;2023-12-20T00:24:56;45.88;;;34.65;;
59970;SDS011;45825;45.434;9.116;2023-12-20T00:27:21;44.72;;;34.53;;
59970;SDS011;45825;45.434;9.116;2023-12-20T00:29:47;46.35;;;35.10;;
59970;SDS011;45825;45.434;9.116;2023-12-20T00:32:14;42.40;;;33.38;;
59970;SDS011;45825;45.434;9.116;2023-12-20T00:34:40;44.05;;;32.88;;
59970;SDS011;45825;45.434;9.116;2023-12-20T00:37:05;44.65;;;32.78;;
59970;SDS011;45825;45.434;9.116;2023-12-20T00:39:31;46.70;;;33.65;;
59970;SDS011;45825;45.434;9.116;2023-12-20T00:41:56;43.58;;;33.22;;
59970;SDS011;45825;45.434;9.116;2023-12-20T00:44:21;46.50;;;32.15;;
59970;SDS011;45825;45.434;9.116;2023-12-20T00:46:46;43.65;;;33.45;;
59970;SDS011;45825;45.434;9.116;2023-12-20T00:49:12;44.75;;;32.22;;
59970;SDS011;45825;45.434;9.116;2023-12-20T00:51:37;43.85;;;32.08;;
59970;SDS011;45825;45.434;9.116;2023-12-20T00:54:02;42.30;;;32.22;;
59970;SDS011;45825;45.434;9.116;2023-12-20T00:56:28;51.47;;;33.97;;
59970;SDS011;45825;45.434;9.116;2023-12-20T00:58:53;44.80;;;33.47;;
59970;SDS011;45825;45.434;9.116;2023-12-20T01:01:18;48.03;;;34.22;;
59970;SDS011;45825;45.434;9.116;2023-12-20T01:03:44;47.38;;;34.40;;
59970;SDS011;45825;45.434;9.116;2023-12-20T01:06:09;45.20;;;33.97;;
59970;SDS011;45825;45.434;9.116;2023-12-20T01:08:34;43.75;;;33.40;;
59970;SDS011;45825;45.434;9.116;2023-12-20T01:11:00;43.45;;;32.05;;
59970;SDS011;45825;45.434;9.116;2023-12-20T01:13:25;43.70;;;33.25;;
59970;SDS011;45825;45.434;9.116;2023-12-20T01:15:50;44.75;;;33.95;;
59970;SDS011;45825;45.434;9.116;2023-12-20T01:18:16;46.42;;;34.78;;
59970;SDS011;45825;45.434;9.116;2023-12-20T01:20:41;46.78;;;34.97;;
59970;SDS011;45825;45.434;9.116;2023-12-20T01:23:06;44.40;;;35.15;;
59970;SDS011;45825;45.434;9.116;2023-12-20T01:25:31;44.17;;;33.60;;
59970;SDS011;45825;45.434;9.116;2023-12-20T01:27:57;48.22;;;35.67;;
59970;SDS011;45825;45.434;9.116;2023-12-20T01:30:22;48.83;;;35.10;;
59970;SDS011;45825;45.434;9.116;2023-12-20T01:32:47;46.20;;;35.17;;
59970;SDS011;45825;45.434;9.116;2023-12-20T01:35:13;48.53;;;34.28;;
59970;SDS011;45825;45.434;9.116;2023-12-20T01:37:38;46.05;;;35.42;;
59970;SDS011;45825;45.434;9.116;2023-12-20T01:40:04;48.58;;;36.78;;
59970;SDS011;45825;45.434;9.116;2023-12-20T01:42:29;46.53;;;35.22;;
59970;SDS011;45825;45.434;9.116;2023-12-20T01:44:55;50.45;;;36.45;;
59970;SDS011;45825;45.434;9.116;2023-12-20T01:47:20;52.10;;;37.17;;
59970;SDS011;45825;45.434;9.116;2023-12-20T01:49:46;57.55;;;36.85;;
59970;SDS011;45825;45.434;9.116;2023-12-20T01:52:11;51.58;;;36.85;;
59970;SDS011;45825;45.434;9.116;2023-12-20T01:54:37;50.92;;;37.20;;
59970;SDS011;45825;45.434;9.116;2023-12-20T01:57:04;51.63;;;36.65;;
59970;SDS011;45825;45.434;9.116;2023-12-20T01:59:31;49.72;;;36.83;;
59970;SDS011;45825;45.434;9.116;2023-12-20T02:01:56;54.63;;;38.00;;
59970;SDS011;45825;45.434;9.116;2023-12-20T02:04:22;48.05;;;37.65;;
59970;SDS011;45825;45.434;9.116;2023-12-20T02:06:47;48.80;;;36.58;;
59970;SDS011;45825;45.434;9.116;2023-12-20T02:09:14;49.05;;;36.33;;
59970;SDS011;45825;45.434;9.116;2023-12-20T02:11:40;55.55;;;38.88;;
59970;SDS011;45825;45.434;9.116;2023-12-20T02:14:05;50.58;;;37.03;;
59970;SDS011;45825;45.434;9.116;2023-12-20T02:16:30;52.88;;;36.70;;
59970;SDS011;45825;45.434;9.116;2023-12-20T02:18:56;51.20;;;37.58;;
59970;SDS011;45825;45.434;9.116;2023-12-20T02:21:25;51.35;;;37.42;;
59970;SDS011;45825;45.434;9.116;2023-12-20T02:23:50;52.35;;;37.90;;
59970;SDS011;45825;45.434;9.116;2023-12-20T02:26:16;48.42;;;36.83;;
59970;SDS011;45825;45.434;9.116;2023-12-20T02:28:41;48.25;;;37.95;;
59970;SDS011;45825;45.434;9.116;2023-12-20T02:31:07;49.15;;;36.97;;
59970;SDS011;45825;45.434;9.116;2023-12-20T02:33:32;53.72;;;37.97;;
59970;SDS011;45825;45.434;9.116;2023-12-20T02:35:57;50.75;;;36.95;;
59970;SDS011;45825;45.434;9.116;2023-12-20T02:38:22;49.97;;;37.13;;
59970;SDS011;45825;45.434;9.116;2023-12-20T02:40:48;52.78;;;37.80;;
59970;SDS011;45825;45.434;9.116;2023-12-20T02:43:13;46.42;;;36.20;;
59970;SDS011;45825;45.434;9.116;2023-12-20T02:45:38;54.90;;;38.72;;
59970;SDS011;45825;45.434;9.116;2023-12-20T02:48:04;52.40;;;38.28;;
59970;SDS011;45825;45.434;9.116;2023-12-20T02:50:29;47.50;;;36.45;;
59970;SDS011;45825;45.434;9.116;2023-12-20T02:52:55;47.25;;;35.75;;
59970;SDS011;45825;45.434;9.116;2023-12-20T02:55:20;47.25;;;36.72;;
59970;SDS011;45825;45.434;9.116;2023-12-20T02:57:45;45.25;;;35.65;;
59970;SDS011;45825;45.434;9.116;2023-12-20T03:00:10;46.85;;;36.40;;
59970;SDS011;45825;45.434;9.116;2023-12-20T03:02:36;46.58;;;35.63;;
59970;SDS011;45825;45.434;9.116;2023-12-20T03:05:02;45.80;;;36.17;;
59970;SDS011;45825;45.434;9.116;2023-12-20T03:07:28;46.63;;;35.85;;
59970;SDS011;45825;45.434;9.116;2023-12-20T03:09:53;45.28;;;34.90;;
59970;SDS011;45825;45.434;9.116;2023-12-20T03:12:18;46.38;;;36.10;;
59970;SDS011;45825;45.434;9.116;2023-12-20T03:14:44;46.80;;;35.47;;
59970;SDS011;45825;45.434;9.116;2023-12-20T03:17:09;49.47;;;36.30;;
59970;SDS011;45825;45.434;9.116;2023-12-20T03:19:35;46.08;;;35.63;;
59970;SDS011;45825;45.434;9.116;2023-12-20T03:22:00;47.33;;;35.67;;
59970;SDS011;45825;45.434;9.116;2023-12-20T03:24:26;47.10;;;36.40;;
59970;SDS011;45825;45.434;9.116;2023-12-20T03:26:51;51.42;;;36.55;;
59970;SDS011;45825;45.434;9.116;2023-12-20T03:29:16;51.78;;;36.70;;
59970;SDS011;45825;45.434;9.116;2023-12-20T03:31:42;47.45;;;34.97;;
59970;SDS011;45825;45.434;9.116;2023-12-20T03:34:07;46.80;;;37.42;;
59970;SDS011;45825;45.434;9.116;2023-12-20T03:36:32;47.83;;;35.88;;
59970;SDS011;45825;45.434;9.116;2023-12-20T03:38:58;46.92;;;36.17;;
59970;SDS011;45825;45.434;9.116;2023-12-20T03:41:23;51.20;;;37.45;;
59970;SDS011;45825;45.434;9.116;2023-12-20T03:43:48;52.72;;;38.05;;
59970;SDS011;45825;45.434;9.116;2023-12-20T03:46:13;48.85;;;36.65;;
59970;SDS011;45825;45.434;9.116;2023-12-20T03:48:39;48.85;;;36.30;;
59970;SDS011;45825;45.434;9.116;2023-12-20T03:51:04;43.95;;;36.40;;
59970;SDS011;45825;45.434;9.116;2023-12-20T03:53:29;49.10;;;37.47;;
59970;SDS011;45825;45.434;9.116;2023-12-20T03:55:55;48.25;;;37.13;;
59970;SDS011;45825;45.434;9.116;2023-12-20T03:58:20;47.08;;;37.42;;
59970;SDS011;45825;45.434;9.116;2023-12-20T04:00:45;48.00;;;38.00;;
59970;SDS011;45825;45.434;9.116;2023-12-20T04:03:11;51.83;;;38.25;;
59970;SDS011;45825;45.434;9.116;2023-12-20T04:05:38;49.85;;;37.42;;
59970;SDS011;45825;45.434;9.116;2023-12-20T04:08:05;49.90;;;36.88;;
59970;SDS011;45825;45.434;9.116;2023-12-20T04:10:30;47.33;;;36.30;;
59970;SDS011;45825;45.434;9.116;2023-12-20T04:12:56;49.15;;;36.58;;
59970;SDS011;45825;45.434;9.116;2023-12-20T04:15:21;49.85;;;37.08;;
59970;SDS011;45825;45.434;9.116;2023-12-20T04:17:46;50.92;;;37.55;;
59970;SDS011;45825;45.434;9.116;2023-12-20T04:20:11;48.60;;;37.30;;
59970;SDS011;45825;45.434;9.116;2023-12-20T04:22:37;46.33;;;36.10;;
59970;SDS011;45825;45.434;9.116;2023-12-20T04:25:02;48.20;;;35.08;;
59970;SDS011;45825;45.434;9.116;2023-12-20T04:27:28;43.13;;;34.28;;
59970;SDS011;45825;45.434;9.116;2023-12-20T04:29:53;44.17;;;33.53;;
59970;SDS011;45825;45.434;9.116;2023-12-20T04:32:18;44.85;;;33.83;;
59970;SDS011;45825;45.434;9.116;2023-12-20T04:34:43;46.53;;;34.25;;
59970;SDS011;45825;45.434;9.116;2023-12-20T04:37:09;44.70;;;32.90;;
59970;SDS011;45825;45.434;9.116;2023-12-20T04:39:34;43.53;;;34.35;;
59970;SDS011;45825;45.434;9.116;2023-12-20T04:41:59;47.13;;;34.50;;
59970;SDS011;45825;45.434;9.116;2023-12-20T04:44:25;45.92;;;35.20;;
59970;SDS011;45825;45.434;9.116;2023-12-20T04:46:50;42.80;;;34.13;;
59970;SDS011;45825;45.434;9.116;2023-12-20T04:49:15;47.40;;;35.58;;
59970;SDS011;45825;45.434;9.116;2023-12-20T04:51:41;49.00;;;35.80;;
59970;SDS011;45825;45.434;9.116;2023-12-20T04:54:06;45.83;;;35.17;;
59970;SDS011;45825;45.434;9.116;2023-12-20T04:56:31;46.10;;;36.50;;
59970;SDS011;45825;45.434;9.116;2023-12-20T04:58:56;46.17;;;36.88;;
59970;SDS011;45825;45.434;9.116;2023-12-20T05:01:22;48.83;;;36.58;;
59970;SDS011;45825;45.434;9.116;2023-12-20T05:03:47;47.17;;;36.35;;
59970;SDS011;45825;45.434;9.116;2023-12-20T05:06:12;48.25;;;36.15;;
59970;SDS011;45825;45.434;9.116;2023-12-20T05:08:38;44.58;;;36.05;;
59970;SDS011;45825;45.434;9.116;2023-12-20T05:11:03;48.25;;;36.67;;
59970;SDS011;45825;45.434;9.116;2023-12-20T05:13:29;45.80;;;36.92;;
59970;SDS011;45825;45.434;9.116;2023-12-20T05:15:54;47.22;;;36.72;;
59970;SDS011;45825;45.434;9.116;2023-12-20T05:18:22;46.50;;;35.20;;
59970;SDS011;45825;45.434;9.116;2023-12-20T05:20:48;48.20;;;37.25;;
59970;SDS011;45825;45.434;9.116;2023-12-20T05:23:15;47.20;;;35.08;;
59970;SDS011;45825;45.434;9.116;2023-12-20T05:25:40;48.20;;;37.28;;
59970;SDS011;45825;45.434;9.116;2023-12-20T05:28:05;48.90;;;38.83;;
59970;SDS011;45825;45.434;9.116;2023-12-20T05:30:30;45.40;;;36.15;;
59970;SDS011;45825;45.434;9.116;2023-12-20T05:32:56;48.85;;;36.50;;
59970;SDS011;45825;45.434;9.116;2023-12-20T05:35:21;42.20;;;36.28;;
59970;SDS011;45825;45.434;9.116;2023-12-20T05:37:48;48.97;;;39.92;;
59970;SDS011;45825;45.434;9.116;2023-12-20T05:40:16;46.60;;;36.92;;
59970;SDS011;45825;45.434;9.116;2023-12-20T05:42:42;51.47;;;37.67;;
59970;SDS011;45825;45.434;9.116;2023-12-20T05:45:07;51.75;;;37.35;;
59970;SDS011;45825;45.434;9.116;2023-12-20T05:47:33;47.30;;;38.90;;
59970;SDS011;45825;45.434;9.116;2023-12-20T05:49:58;45.20;;;37.10;;
59970;SDS011;45825;45.434;9.116;2023-12-20T05:52:23;47.45;;;38.15;;
59970;SDS011;45825;45.434;9.116;2023-12-20T05:54:49;54.45;;;38.92;;
59970;SDS011;45825;45.434;9.116;2023-12-20T05:57:14;51.70;;;39.58;;
59970;SDS011;45825;45.434;9.116;2023-12-20T05:59:40;52.78;;;37.72;;
59970;SDS011;45825;45.434;9.116;2023-12-20T06:02:05;49.35;;;37.53;;
59970;SDS011;45825;45.434;9.116;2023-12-20T06:04:30;51.35;;;38.45;;
59970;SDS011;45825;45.434;9.116;2023-12-20T06:06:56;48.38;;;37.95;;
59970;SDS011;45825;45.434;9.116;2023-12-20T06:09:21;49.83;;;38.17;;
59970;SDS011;45825;45.434;9.116;2023-12-20T06:11:47;48.85;;;37.50;;
59970;SDS011;45825;45.434;9.116;2023-12-20T06:14:12;49.97;;;37.65;;
59970;SDS011;45825;45.434;9.116;2023-12-20T06:16:38;53.17;;;38.38;;
59970;SDS011;45825;45.434;9.116;2023-12-20T06:19:03;47.53;;;38.45;;
59970;SDS011;45825;45.434;9.116;2023-12-20T06:21:28;47.33;;;38.20;;
59970;SDS011;45825;45.434;9.116;2023-12-20T06:23:53;49.38;;;38.95;;
59970;SDS011;45825;45.434;9.116;2023-12-20T06:26:19;52.15;;;39.28;;
59970;SDS011;45825;45.434;9.116;2023-12-20T06:28:45;49.78;;;39.65;;
59970;SDS011;45825;45.434;9.116;2023-12-20T06:31:10;51.70;;;38.58;;
59970;SDS011;45825;45.434;9.116;2023-12-20T06:33:35;51.70;;;37.78;;
59970;SDS011;45825;45.434;9.116;2023-12-20T06:36:01;55.33;;;37.28;;
59970;SDS011;45825;45.434;9.116;2023-12-20T06:38:26;44.13;;;35.53;;
59970;SDS011;45825;45.434;9.116;2023-12-20T06:40:52;45.80;;;35.72;;
59970;SDS011;45825;45.434;9.116;2023-12-20T06:43:17;46.67;;;36.42;;
59970;SDS011;45825;45.434;9.116;2023-12-20T06:45:42;48.13;;;36.60;;
59970;SDS011;45825;45.434;9.116;2023-12-20T06:48:08;48.38;;;36.42;;
59970;SDS011;45825;45.434;9.116;2023-12-20T06:50:33;45.28;;;35.67;;
59970;SDS011;45825;45.434;9.116;2023-12-20T06:52:58;46.08;;;35.97;;
59970;SDS011;45825;45.434;9.116;2023-12-20T06:55:24;46.92;;;35.92;;
59970;SDS011;45825;45.434;9.116;2023-12-20T06:57:49;43.72;;;35.17;;
59970;SDS011;45825;45.434;9.116;2023-12-20T07:00:14;46.13;;;36.17;;
59970;SDS011;45825;45.434;9.116;2023-12-20T07:02:40;46.97;;;35.95;;
59970;SDS011;45825;45.434;9.116;2023-12-20T07:05:06;42.85;;;34.13;;
59970;SDS011;45825;45.434;9.116;2023-12-20T07:07:31;44.53;;;35.50;;
59970;SDS011;45825;45.434;9.116;2023-12-20T07:09:57;48.42;;;35.00;;
59970;SDS011;45825;45.434;9.116;2023-12-20T07:12:22;45.22;;;34.97;;
59970;SDS011;45825;45.434;9.116;2023-12-20T07:14:47;44.83;;;34.78;;
59970;SDS011;45825;45.434;9.116;2023-12-20T07:17:13;44.28;;;33.97;;
59970;SDS011;45825;45.434;9.116;2023-12-20T07:19:40;49.97;;;34.95;;
59970;SDS011;45825;45.434;9.116;2023-12-20T07:22:05;50.10;;;34.50;;
59970;SDS011;45825;45.434;9.116;2023-12-20T07:24:31;49.83;;;35.08;;
59970;SDS011;45825;45.434;9.116;2023-12-20T07:26:58;53.67;;;35.60;;
59970;SDS011;45825;45.434;9.116;2023-12-20T07:29:25;46.63;;;34.50;;
59970;SDS011;45825;45.434;9.116;2023-12-20T07:31:52;46.30;;;35.38;;
59970;SDS011;45825;45.434;9.116;2023-12-20T07:34:18;46.08;;;34.97;;
59970;SDS011;45825;45.434;9.116;2023-12-20T07:36:44;44.90;;;34.10;;
59970;SDS011;45825;45.434;9.116;2023-12-20T07:39:10;47.92;;;35.60;;
59970;SDS011;45825;45.434;9.116;2023-12-20T07:41:35;45.65;;;34.08;;
59970;SDS011;45825;45.434;9.116;2023-12-20T07:44:00;46.97;;;35.70;;
59970;SDS011;45825;45.434;9.116;2023-12-20T07:46:27;45.95;;;36.17;;
59970;SDS011;45825;45.434;9.116;2023-12-20T07:48:52;48.88;;;37.10;;
59970;SDS011;45825;45.434;9.116;2023-12-20T07:51:17;53.10;;;36.63;;
59970;SDS011;45825;45.434;9.116;2023-12-20T07:53:43;45.03;;;34.70;;
59970;SDS011;45825;45.434;9.116;2023-12-20T07:56:15;49.88;;;36.83;;
59970;SDS011;45825;45.434;9.116;2023-12-20T07:58:41;46.05;;;36.67;;
59970;SDS011;45825;45.434;9.116;2023-12-20T08:01:06;49.75;;;35.30;;
59970;SDS011;45825;45.434;9.116;2023-12-20T08:03:31;48.10;;;37.83;;
59970;SDS011;45825;45.434;9.116;2023-12-20T08:05:57;49.72;;;36.75;;
59970;SDS011;45825;45.434;9.116;2023-12-20T08:08:24;47.42;;;37.85;;
59970;SDS011;45825;45.434;9.116;2023-12-20T08:10:50;52.80;;;37.05;;
59970;SDS011;45825;45.434;9.116;2023-12-20T08:13:15;43.35;;;35.88;;
59970;SDS011;45825;45.434;9.116;2023-12-20T08:15:40;49.83;;;37.05;;
59970;SDS011;45825;45.434;9.116;2023-12-20T08:18:06;45.80;;;36.83;;
59970;SDS011;45825;45.434;9.116;2023-12-20T08:20:31;51.75;;;36.67;;
59970;SDS011;45825;45.434;9.116;2023-12-20T08:22:57;49.13;;;37.45;;
59970;SDS011;45825;45.434;9.116;2023-12-20T08:25:22;51.72;;;38.40;;
59970;SDS011;45825;45.434;9.116;2023-12-20T08:27:47;50.72;;;37.60;;
59970;SDS011;45825;45.434;9.116;2023-12-20T08:30:12;43.35;;;36.35;;
59970;SDS011;45825;45.434;9.116;2023-12-20T08:32:38;50.72;;;37.13;;
59970;SDS011;45825;45.434;9.116;2023-12-20T08:35:03;53.53;;;36.90;;
59970;SDS011;45825;45.434;9.116;2023-12-20T08:37:29;51.05;;;39.28;;
59970;SDS011;45825;45.434;9.116;2023-12-20T08:39:55;48.17;;;38.10;;
59970;SDS011;45825;45.434;9.116;2023-12-20T08:42:21;48.58;;;37.75;;
59970;SDS011;45825;45.434;9.116;2023-12-20T08:44:46;50.78;;;39.28;;
59970;SDS011;45825;45.434;9.116;2023-12-20T08:47:11;52.83;;;39.63;;
59970;SDS011;45825;45.434;9.116;2023-12-20T08:49:38;50.85;;;41.20;;
59970;SDS011;45825;45.434;9.116;2023-12-20T08:52:04;51.92;;;39.13;;
59970;SDS011;45825;45.434;9.116;2023-12-20T08:54:29;45.15;;;37.17;;
59970;SDS011;45825;45.434;9.116;2023-12-20T08:56:55;48.78;;;38.15;;
59970;SDS011;45825;45.434;9.116;2023-12-20T08:59:20;47.42;;;39.17;;
59970;SDS011;45825;45.434;9.116;2023-12-20T09:01:45;48.03;;;36.92;;
59970;SDS011;45825;45.434;9.116;2023-12-20T09:04:12;47.33;;;35.85;;
59970;SDS011;45825;45.434;9.116;2023-12-20T09:06:37;45.45;;;34.10;;
59970;SDS011;45825;45.434;9.116;2023-12-20T09:09:02;43.78;;;34.10;;
59970;SDS011;45825;45.434;9.116;2023-12-20T09:11:28;44.50;;;34.40;;
59970;SDS011;45825;45.434;9.116;2023-12-20T09:13:53;41.42;;;32.03;;
59970;SDS011;45825;45.434;9.116;2023-12-20T09:16:18;42.65;;;32.35;;
59970;SDS011;45825;45.434;9.116;2023-12-20T09:18:44;45.88;;;32.65;;
59970;SDS011;45825;45.434;9.116;2023-12-20T09:21:09;42.80;;;32.50;;
59970;SDS011;45825;45.434;9.116;2023-12-20T09:23:34;43.78;;;34.38;;
59970;SDS011;45825;45.434;9.116;2023-12-20T09:26:01;43.33;;;35.08;;
59970;SDS011;45825;45.434;9.116;2023-12-20T09:28:27;53.45;;;36.75;;
59970;SDS011;45825;45.434;9.116;2023-12-20T09:30:52;51.15;;;36.90;;
59970;SDS011;45825;45.434;9.116;2023-12-20T09:33:18;47.65;;;35.58;;
59970;SDS011;45825;45.434;9.116;2023-12-20T09:35:43;49.25;;;36.65;;
59970;SDS011;45825;45.434;9.116;2023-12-20T09:38:09;43.58;;;35.15;;
59970;SDS011;45825;45.434;9.116;2023-12-20T09:40:34;46.38;;;35.42;;
59970;SDS011;45825;45.434;9.116;2023-12-20T09:43:03;46.15;;;35.95;;
59970;SDS011;45825;45.434;9.116;2023-12-20T09:45:30;49.30;;;37.13;;
59970;SDS011;45825;45.434;9.116;2023-12-20T09:47:57;47.53;;;36.25;;
59970;SDS011;45825;45.434;9.116;2023-12-20T09:50:23;46.55;;;36.97;;
59970;SDS011;45825;45.434;9.116;2023-12-20T09:52:49;46.20;;;35.50;;
59970;SDS011;45825;45.434;9.116;2023-12-20T09:55:19;44.67;;;36.08;;
59970;SDS011;45825;45.434;9.116;2023-12-20T09:57:46;46.08;;;35.53;;
59970;SDS011;45825;45.434;9.116;2023-12-20T10:00:12;46.83;;;35.65;;
59970;SDS011;45825;45.434;9.116;2023-12-20T10:02:40;45.40;;;35.28;;
59970;SDS011;45825;45.434;9.116;2023-12-20T10:05:10;41.22;;;34.30;;
59970;SDS011;45825;45.434;9.116;2023-12-20T10:07:41;43.08;;;33.70;;
59970;SDS011;45825;45.434;9.116;2023-12-20T10:10:06;44.95;;;35.35;;
59970;SDS011;45825;45.434;9.116;2023-12-20T10:12:33;45.30;;;34.70;;
59970;SDS011;45825;45.434;9.116;2023-12-20T10:14:59;46.55;;;35.90;;
59970;SDS011;45825;45.434;9.116;2023-12-20T10:17:24;48.55;;;36.30;;
59970;SDS011;45825;45.434;9.116;2023-12-20T10:19:54;46.22;;;35.80;;
59970;SDS011;45825;45.434;9.116;2023-12-20T10:22:19;48.53;;;37.33;;
59970;SDS011;45825;45.434;9.116;2023-12-20T10:24:45;50.78;;;35.90;;
59970;SDS011;45825;45.434;9.116;2023-12-20T10:27:11;43.35;;;35.60;;
59970;SDS011;45825;45.434;9.116;2023-12-20T10:29:37;45.92;;;36.33;;
59970;SDS011;45825;45.434;9.116;2023-12-20T10:34:49;46.75;;;34.80;;
59970;SDS011;45825;45.434;9.116;2023-12-20T10:37:14;42.17;;;34.38;;
59970;SDS011;45825;45.434;9.116;2023-12-20T10:39:39;44.42;;;34.88;;
59970;SDS011;45825;45.434;9.116;2023-12-20T10:42:08;44.50;;;35.50;;
59970;SDS011;45825;45.434;9.116;2023-12-20T10:44:36;48.40;;;36.45;;
59970;SDS011;45825;45.434;9.116;2023-12-20T10:47:01;41.15;;;35.90;;
59970;SDS011;45825;45.434;9.116;2023-12-20T10:49:29;43.20;;;35.60;;
59970;SDS011;45825;45.434;9.116;2023-12-20T10:51:55;43.88;;;35.97;;
59970;SDS011;45825;45.434;9.116;2023-12-20T10:54:23;46.22;;;36.63;;
59970;SDS011;45825;45.434;9.116;2023-12-20T10:56:49;48.20;;;36.88;;
59970;SDS011;45825;45.434;9.116;2023-12-20T10:59:17;45.92;;;36.10;;
59970;SDS011;45825;45.434;9.116;2023-12-20T11:01:45;52.90;;;37.10;;
59970;SDS011;45825;45.434;9.116;2023-12-20T11:04:15;47.03;;;36.58;;
59970;SDS011;45825;45.434;9.116;2023-12-20T11:10:03;45.60;;;35.22;;
59970;SDS011;45825;45.434;9.116;2023-12-20T11:12:47;43.88;;;34.22;;
59970;SDS011;45825;45.434;9.116;2023-12-20T11:15:18;43.60;;;33.03;;
59970;SDS011;45825;45.434;9.116;2023-12-20T11:17:45;42.70;;;32.88;;
59970;SDS011;45825;45.434;9.116;2023-12-20T11:20:11;39.53;;;32.30;;
59970;SDS011;45825;45.434;9.116;2023-12-20T11:22:37;43.53;;;33.90;;
59970;SDS011;45825;45.434;9.116;2023-12-20T11:25:10;41.88;;;34.33;;
59970;SDS011;45825;45.434;9.116;2023-12-20T11:27:36;43.33;;;34.70;;
59970;SDS011;45825;45.434;9.116;2023-12-20T11:30:05;40.17;;;33.33;;
59970;SDS011;45825;45.434;9.116;2023-12-20T11:32:32;41.38;;;33.95;;
59970;SDS011;45825;45.434;9.116;2023-12-20T11:35:00;37.65;;;32.15;;
59970;SDS011;45825;45.434;9.116;2023-12-20T11:37:30;42.58;;;34.22;;
59970;SDS011;45825;45.434;9.116;2023-12-20T11:40:05;42.22;;;32.90;;
59970;SDS011;45825;45.434;9.116;2023-12-20T11:42:39;44.50;;;34.38;;
59970;SDS011;45825;45.434;9.116;2023-12-20T11:45:05;42.30;;;33.72;;
59970;SDS011;45825;45.434;9.116;2023-12-20T11:47:33;37.78;;;31.90;;
59970;SDS011;45825;45.434;9.116;2023-12-20T11:50:00;42.45;;;34.13;;
59970;SDS011;45825;45.434;9.116;2023-12-20T11:52:28;42.10;;;33.35;;
59970;SDS011;45825;45.434;9.116;2023-12-20T11:54:53;40.08;;;33.08;;
59970;SDS011;45825;45.434;9.116;2023-12-20T11:57:19;37.67;;;32.42;;
59970;SDS011;45825;45.434;9.116;2023-12-20T11:59:44;39.03;;;32.80;;
59970;SDS011;45825;45.434;9.116;2023-12-20T12:02:11;43.63;;;34.13;;
59970;SDS011;45825;45.434;9.116;2023-12-20T12:04:36;37.20;;;32.75;;
59970;SDS011;45825;45.434;9.116;2023-12-20T12:07:02;41.17;;;34.42;;
59970;SDS011;45825;45.434;9.116;2023-12-20T12:09:28;41.72;;;33.65;;
59970;SDS011;45825;45.434;9.116;2023-12-20T12:11:53;38.60;;;33.28;;
59970;SDS011;45825;45.434;9.116;2023-12-20T12:14:19;42.80;;;35.15;;
59970;SDS011;45825;45.434;9.116;2023-12-20T12:16:45;42.08;;;33.90;;
59970;SDS011;45825;45.434;9.116;2023-12-20T12:19:20;44.60;;;34.50;;
59970;SDS011;45825;45.434;9.116;2023-12-20T12:21:49;49.92;;;36.15;;
59970;SDS011;45825;45.434;9.116;2023-12-20T12:24:19;43.72;;;34.35;;
59970;SDS011;45825;45.434;9.116;2023-12-20T12:26:50;43.65;;;33.28;;
59970;SDS011;45825;45.434;9.116;2023-12-20T12:29:16;39.28;;;33.90;;
59970;SDS011;45825;45.434;9.116;2023-12-20T12:31:41;39.60;;;33.42;;
59970;SDS011;45825;45.434;9.116;2023-12-20T12:34:06;39.05;;;32.65;;
59970;SDS011;45825;45.434;9.116;2023-12-20T12:36:34;41.95;;;33.63;;
59970;SDS011;45825;45.434;9.116;2023-12-20T12:39:02;40.08;;;34.33;;
59970;SDS011;45825;45.434;9.116;2023-12-20T12:41:29;57.80;;;51.40;;
59970;SDS011;45825;45.434;9.116;2023-12-20T12:43:55;46.45;;;41.38;;
59970;SDS011;45825;45.434;9.116;2023-12-20T12:46:20;45.45;;;40.55;;
59970;SDS011;45825;45.434;9.116;2023-12-20T12:48:46;47.58;;;42.45;;
59970;SDS011;45825;45.434;9.116;2023-12-20T12:51:12;46.60;;;41.65;;
59970;SDS011;45825;45.434;9.116;2023-12-20T12:53:38;47.35;;;40.33;;
59970;SDS011;45825;45.434;9.116;2023-12-20T12:56:04;50.88;;;43.58;;
59970;SDS011;45825;45.434;9.116;2023-12-20T12:58:29;52.28;;;44.45;;
59970;SDS011;45825;45.434;9.116;2023-12-20T13:00:55;49.00;;;43.70;;
59970;SDS011;45825;45.434;9.116;2023-12-20T13:03:20;43.22;;;35.58;;
59970;SDS011;45825;45.434;9.116;2023-12-20T13:05:46;45.75;;;35.92;;
59970;SDS011;45825;45.434;9.116;2023-12-20T13:08:13;41.00;;;34.42;;
59970;SDS011;45825;45.434;9.116;2023-12-20T13:10:38;41.58;;;32.88;;
59970;SDS011;45825;45.434;9.116;2023-12-20T13:13:04;38.17;;;31.80;;
59970;SDS011;45825;45.434;9.116;2023-12-20T13:15:29;33.83;;;30.08;;
59970;SDS011;45825;45.434;9.116;2023-12-20T13:17:55;33.03;;;28.80;;
59970;SDS011;45825;45.434;9.116;2023-12-20T13:20:20;33.63;;;28.00;;
59970;SDS011;45825;45.434;9.116;2023-12-20T13:22:47;34.30;;;28.50;;
59970;SDS011;45825;45.434;9.116;2023-12-20T13:25:12;31.42;;;27.30;;
59970;SDS011;45825;45.434;9.116;2023-12-20T13:27:38;33.08;;;29.48;;
59970;SDS011;45825;45.434;9.116;2023-12-20T13:30:04;38.55;;;29.55;;
59970;SDS011;45825;45.434;9.116;2023-12-20T13:32:30;36.28;;;28.65;;
59970;SDS011;45825;45.434;9.116;2023-12-20T13:34:55;33.75;;;30.08;;
59970;SDS011;45825;45.434;9.116;2023-12-20T13:37:21;37.00;;;29.73;;
59970;SDS011;45825;45.434;9.116;2023-12-20T13:39:46;34.67;;;30.85;;
59970;SDS011;45825;45.434;9.116;2023-12-20T13:42:11;35.90;;;31.80;;
59970;SDS011;45825;45.434;9.116;2023-12-20T13:44:37;39.55;;;31.38;;
59970;SDS011;45825;45.434;9.116;2023-12-20T13:47:02;36.33;;;31.38;;
59970;SDS011;45825;45.434;9.116;2023-12-20T13:49:28;39.70;;;32.58;;
59970;SDS011;45825;45.434;9.116;2023-12-20T13:51:54;39.83;;;33.30;;
59970;SDS011;45825;45.434;9.116;2023-12-20T13:54:20;44.15;;;33.88;;
59970;SDS011;45825;45.434;9.116;2023-12-20T13:56:47;36.75;;;31.95;;
59970;SDS011;45825;45.434;9.116;2023-12-20T13:59:12;35.42;;;31.52;;
59970;SDS011;45825;45.434;9.116;2023-12-20T14:01:38;40.60;;;32.15;;
59970;SDS011;45825;45.434;9.116;2023-12-20T14:04:04;36.95;;;31.67;;
59970;SDS011;45825;45.434;9.116;2023-12-20T14:06:29;36.08;;;31.98;;
59970;SDS011;45825;45.434;9.116;2023-12-20T14:08:55;40.28;;;33.67;;
59970;SDS011;45825;45.434;9.116;2023-12-20T14:11:20;39.65;;;33.92;;
59970;SDS011;45825;45.434;9.116;2023-12-20T14:13:46;41.58;;;32.22;;
59970;SDS011;45825;45.434;9.116;2023-12-20T14:16:11;41.13;;;33.13;;
59970;SDS011;45825;45.434;9.116;2023-12-20T14:18:37;41.95;;;33.42;;